sensor_id;sensor_type;location;lat;lon;timestamp;P1;durP1;ratioP1;P2;durP2;ratioP2
21326;SDS011;10822;51.532;6.770;2024-01-15T00:01:42;50.53;;;22.45;;
21326;SDS011;10822;51.532;6.770;2024-01-15T00:04:09;50.22;;;23.08;;
21326;SDS011;10822;51.532;6.770;2024-01-15T00:06:35;48.35;;;23.02;;
21326;SDS011;10822;51.532;6.770;2024-01-15T00:09:01;47.42;;;22.38;;
21326;SDS011;10822;51.532;6.770;2024-01-15T00:11:27;45.00;;;22.05;;
21326;SDS011;10822;51.532;6.770;2024-01-15T00:13:53;48.38;;;22.92;;
21326;SDS011;10822;51.532;6.770;2024-01-15T00:16:19;47.75;;;20.67;;
21326;SDS011;10822;51.532;6.770;2024-01-15T00:18:45;46.38;;;22.38;;
21326;SDS011;10822;51.532;6.770;2024-01-15T00:21:11;43.15;;;21.17;;
21326;SDS011;10822;51.532;6.770;2024-01-15T00:23:39;42.40;;;20.50;;
21326;SDS011;10822;51.532;6.770;2024-01-15T00:26:08;43.65;;;19.33;;
21326;SDS011;10822;51.532;6.770;2024-01-15T00:28:34;43.10;;;20.17;;
21326;SDS011;10822;51.532;6.770;2024-01-15T00:31:01;38.42;;;18.65;;
21326;SDS011;10822;51.532;6.770;2024-01-15T00:33:27;41.92;;;19.23;;
21326;SDS011;10822;51.532;6.770;2024-01-15T00:35:53;42.90;;;20.13;;
21326;SDS011;10822;51.532;6.770;2024-01-15T00:38:19;40.55;;;18.30;;
21326;SDS011;10822;51.532;6.770;2024-01-15T00:40:45;39.08;;;17.95;;
21326;SDS011;10822;51.532;6.770;2024-01-15T00:43:11;37.65;;;17.08;;
21326;SDS011;10822;51.532;6.770;2024-01-15T00:45:37;34.33;;;17.13;;
21326;SDS011;10822;51.532;6.770;2024-01-15T00:48:03;35.25;;;16.98;;
21326;SDS011;10822;51.532;6.770;2024-01-15T00:50:29;37.90;;;17.48;;
21326;SDS011;10822;51.532;6.770;2024-01-15T00:52:55;33.05;;;17.17;;
21326;SDS011;10822;51.532;6.770;2024-01-15T00:55:21;37.88;;;16.52;;
21326;SDS011;10822;51.532;6.770;2024-01-15T00:57:47;37.42;;;16.38;;
21326;SDS011;10822;51.532;6.770;2024-01-15T01:00:13;33.80;;;16.92;;
21326;SDS011;10822;51.532;6.770;2024-01-15T01:02:39;35.83;;;16.38;;
21326;SDS011;10822;51.532;6.770;2024-01-15T01:05:05;32.10;;;15.15;;
21326;SDS011;10822;51.532;6.770;2024-01-15T01:07:31;31.95;;;16.08;;
21326;SDS011;10822;51.532;6.770;2024-01-15T01:09:57;29.63;;;15.95;;
21326;SDS011;10822;51.532;6.770;2024-01-15T01:12:23;32.42;;;15.98;;
21326;SDS011;10822;51.532;6.770;2024-01-15T01:14:49;31.27;;;15.77;;
21326;SDS011;10822;51.532;6.770;2024-01-15T01:17:15;29.65;;;16.25;;
21326;SDS011;10822;51.532;6.770;2024-01-15T01:19:41;37.60;;;16.13;;
21326;SDS011;10822;51.532;6.770;2024-01-15T01:22:07;33.92;;;15.20;;
21326;SDS011;10822;51.532;6.770;2024-01-15T01:24:33;31.80;;;16.10;;
21326;SDS011;10822;51.532;6.770;2024-01-15T01:26:59;33.05;;;15.23;;
21326;SDS011;10822;51.532;6.770;2024-01-15T01:29:25;32.08;;;16.00;;
21326;SDS011;10822;51.532;6.770;2024-01-15T01:31:51;33.28;;;16.60;;
21326;SDS011;10822;51.532;6.770;2024-01-15T01:34:17;31.48;;;15.75;;
21326;SDS011;10822;51.532;6.770;2024-01-15T01:36:43;34.22;;;16.38;;
21326;SDS011;10822;51.532;6.770;2024-01-15T01:39:09;29.70;;;16.23;;
21326;SDS011;10822;51.532;6.770;2024-01-15T01:41:35;32.17;;;16.50;;
21326;SDS011;10822;51.532;6.770;2024-01-15T01:44:01;34.70;;;16.98;;
21326;SDS011;10822;51.532;6.770;2024-01-15T01:46:27;28.60;;;16.42;;
21326;SDS011;10822;51.532;6.770;2024-01-15T01:48:54;36.40;;;16.25;;
21326;SDS011;10822;51.532;6.770;2024-01-15T01:51:22;35.95;;;16.13;;
21326;SDS011;10822;51.532;6.770;2024-01-15T01:53:48;34.33;;;17.13;;
21326;SDS011;10822;51.532;6.770;2024-01-15T01:56:15;31.98;;;15.85;;
21326;SDS011;10822;51.532;6.770;2024-01-15T01:58:41;33.05;;;16.35;;
21326;SDS011;10822;51.532;6.770;2024-01-15T02:01:07;31.45;;;14.50;;
21326;SDS011;10822;51.532;6.770;2024-01-15T02:03:33;28.77;;;15.50;;
21326;SDS011;10822;51.532;6.770;2024-01-15T02:06:00;32.70;;;15.55;;
21326;SDS011;10822;51.532;6.770;2024-01-15T02:08:26;29.83;;;15.43;;
21326;SDS011;10822;51.532;6.770;2024-01-15T02:10:52;32.88;;;15.13;;
21326;SDS011;10822;51.532;6.770;2024-01-15T02:13:18;27.65;;;14.82;;
21326;SDS011;10822;51.532;6.770;2024-01-15T02:15:44;29.20;;;14.57;;
21326;SDS011;10822;51.532;6.770;2024-01-15T02:18:10;31.33;;;15.15;;
21326;SDS011;10822;51.532;6.770;2024-01-15T02:20:36;31.80;;;14.63;;
21326;SDS011;10822;51.532;6.770;2024-01-15T02:25:29;30.02;;;14.60;;
21326;SDS011;10822;51.532;6.770;2024-01-15T02:27:55;30.05;;;13.80;;
21326;SDS011;10822;51.532;6.770;2024-01-15T02:30:21;28.08;;;13.50;;
21326;SDS011;10822;51.532;6.770;2024-01-15T02:32:48;31.50;;;14.60;;
21326;SDS011;10822;51.532;6.770;2024-01-15T02:35:14;30.15;;;15.25;;
21326;SDS011;10822;51.532;6.770;2024-01-15T02:37:40;31.88;;;14.60;;
21326;SDS011;10822;51.532;6.770;2024-01-15T02:40:06;26.23;;;13.10;;
21326;SDS011;10822;51.532;6.770;2024-01-15T02:42:32;30.38;;;14.13;;
21326;SDS011;10822;51.532;6.770;2024-01-15T02:44:58;32.67;;;14.88;;
21326;SDS011;10822;51.532;6.770;2024-01-15T02:47:24;25.60;;;13.05;;
21326;SDS011;10822;51.532;6.770;2024-01-15T02:49:50;32.28;;;14.02;;
21326;SDS011;10822;51.532;6.770;2024-01-15T02:52:16;29.48;;;13.80;;
21326;SDS011;10822;51.532;6.770;2024-01-15T02:54:42;27.17;;;12.85;;
21326;SDS011;10822;51.532;6.770;2024-01-15T02:57:08;30.58;;;13.02;;
21326;SDS011;10822;51.532;6.770;2024-01-15T02:59:34;27.27;;;12.85;;
21326;SDS011;10822;51.532;6.770;2024-01-15T03:02:00;25.70;;;11.63;;
21326;SDS011;10822;51.532;6.770;2024-01-15T03:04:26;26.63;;;11.90;;
21326;SDS011;10822;51.532;6.770;2024-01-15T03:06:52;26.83;;;12.32;;
21326;SDS011;10822;51.532;6.770;2024-01-15T03:09:18;25.65;;;12.48;;
21326;SDS011;10822;51.532;6.770;2024-01-15T03:11:44;22.00;;;12.00;;
21326;SDS011;10822;51.532;6.770;2024-01-15T03:14:10;24.55;;;11.95;;
21326;SDS011;10822;51.532;6.770;2024-01-15T03:16:35;23.73;;;11.10;;
21326;SDS011;10822;51.532;6.770;2024-01-15T03:19:01;22.30;;;10.45;;
21326;SDS011;10822;51.532;6.770;2024-01-15T03:21:28;18.95;;;9.68;;
21326;SDS011;10822;51.532;6.770;2024-01-15T03:23:54;22.50;;;9.68;;
21326;SDS011;10822;51.532;6.770;2024-01-15T03:26:19;20.30;;;10.15;;
21326;SDS011;10822;51.532;6.770;2024-01-15T03:28:45;18.88;;;9.07;;
21326;SDS011;10822;51.532;6.770;2024-01-15T03:31:11;18.10;;;9.13;;
21326;SDS011;10822;51.532;6.770;2024-01-15T03:33:37;19.02;;;9.00;;
21326;SDS011;10822;51.532;6.770;2024-01-15T03:36:03;16.25;;;8.35;;
21326;SDS011;10822;51.532;6.770;2024-01-15T03:38:29;14.93;;;8.45;;
21326;SDS011;10822;51.532;6.770;2024-01-15T03:40:55;18.90;;;7.50;;
21326;SDS011;10822;51.532;6.770;2024-01-15T03:43:21;21.80;;;8.95;;
21326;SDS011;10822;51.532;6.770;2024-01-15T03:45:47;13.93;;;8.20;;
21326;SDS011;10822;51.532;6.770;2024-01-15T03:48:13;18.52;;;8.60;;
21326;SDS011;10822;51.532;6.770;2024-01-15T03:50:39;21.75;;;8.07;;
21326;SDS011;10822;51.532;6.770;2024-01-15T03:53:05;17.08;;;8.15;;
21326;SDS011;10822;51.532;6.770;2024-01-15T03:55:31;16.05;;;8.13;;
21326;SDS011;10822;51.532;6.770;2024-01-15T03:57:57;15.55;;;8.15;;
21326;SDS011;10822;51.532;6.770;2024-01-15T04:00:23;16.98;;;7.93;;
21326;SDS011;10822;51.532;6.770;2024-01-15T04:02:49;20.63;;;8.57;;
21326;SDS011;10822;51.532;6.770;2024-01-15T04:05:15;18.25;;;8.30;;
21326;SDS011;10822;51.532;6.770;2024-01-15T04:07:41;16.02;;;8.63;;
21326;SDS011;10822;51.532;6.770;2024-01-15T04:10:07;17.95;;;9.05;;
21326;SDS011;10822;51.532;6.770;2024-01-15T04:12:34;16.85;;;8.48;;
21326;SDS011;10822;51.532;6.770;2024-01-15T04:15:00;14.48;;;8.30;;
21326;SDS011;10822;51.532;6.770;2024-01-15T04:17:26;20.45;;;9.18;;
21326;SDS011;10822;51.532;6.770;2024-01-15T04:19:53;20.40;;;9.57;;
21326;SDS011;10822;51.532;6.770;2024-01-15T04:22:18;18.02;;;9.00;;
21326;SDS011;10822;51.532;6.770;2024-01-15T04:24:44;18.20;;;9.43;;
21326;SDS011;10822;51.532;6.770;2024-01-15T04:27:10;20.65;;;10.02;;
21326;SDS011;10822;51.532;6.770;2024-01-15T04:29:39;20.65;;;10.25;;
21326;SDS011;10822;51.532;6.770;2024-01-15T04:32:05;21.17;;;10.50;;
21326;SDS011;10822;51.532;6.770;2024-01-15T04:34:31;18.75;;;9.90;;
21326;SDS011;10822;51.532;6.770;2024-01-15T04:36:57;18.48;;;9.57;;
21326;SDS011;10822;51.532;6.770;2024-01-15T04:39:23;21.25;;;11.65;;
21326;SDS011;10822;51.532;6.770;2024-01-15T04:41:49;19.33;;;10.07;;
21326;SDS011;10822;51.532;6.770;2024-01-15T04:44:15;16.23;;;9.20;;
21326;SDS011;10822;51.532;6.770;2024-01-15T04:46:41;18.70;;;9.48;;
21326;SDS011;10822;51.532;6.770;2024-01-15T04:49:08;17.02;;;9.27;;
21326;SDS011;10822;51.532;6.770;2024-01-15T04:51:34;19.70;;;9.50;;
21326;SDS011;10822;51.532;6.770;2024-01-15T04:54:01;21.00;;;9.43;;
21326;SDS011;10822;51.532;6.770;2024-01-15T04:56:27;16.42;;;9.48;;
21326;SDS011;10822;51.532;6.770;2024-01-15T04:58:53;19.33;;;9.15;;
21326;SDS011;10822;51.532;6.770;2024-01-15T05:01:18;16.27;;;9.38;;
21326;SDS011;10822;51.532;6.770;2024-01-15T05:03:44;16.77;;;8.20;;
21326;SDS011;10822;51.532;6.770;2024-01-15T05:06:10;16.10;;;8.20;;
21326;SDS011;10822;51.532;6.770;2024-01-15T05:08:36;19.48;;;8.90;;
21326;SDS011;10822;51.532;6.770;2024-01-15T05:11:02;15.85;;;8.20;;
21326;SDS011;10822;51.532;6.770;2024-01-15T05:13:28;19.70;;;8.90;;
21326;SDS011;10822;51.532;6.770;2024-01-15T05:15:54;17.23;;;8.80;;
21326;SDS011;10822;51.532;6.770;2024-01-15T05:18:20;12.35;;;8.32;;
21326;SDS011;10822;51.532;6.770;2024-01-15T05:20:47;14.70;;;8.57;;
21326;SDS011;10822;51.532;6.770;2024-01-15T05:23:13;13.90;;;7.88;;
21326;SDS011;10822;51.532;6.770;2024-01-15T05:25:38;13.88;;;8.77;;
21326;SDS011;10822;51.532;6.770;2024-01-15T05:28:05;13.55;;;7.93;;
21326;SDS011;10822;51.532;6.770;2024-01-15T05:30:31;16.90;;;8.07;;
21326;SDS011;10822;51.532;6.770;2024-01-15T05:32:57;13.32;;;7.35;;
21326;SDS011;10822;51.532;6.770;2024-01-15T05:35:25;16.10;;;7.40;;
21326;SDS011;10822;51.532;6.770;2024-01-15T05:37:51;13.38;;;8.15;;
21326;SDS011;10822;51.532;6.770;2024-01-15T05:40:17;15.43;;;8.23;;
21326;SDS011;10822;51.532;6.770;2024-01-15T05:42:43;14.15;;;7.40;;
21326;SDS011;10822;51.532;6.770;2024-01-15T05:45:09;15.05;;;7.90;;
21326;SDS011;10822;51.532;6.770;2024-01-15T05:47:35;13.82;;;7.90;;
21326;SDS011;10822;51.532;6.770;2024-01-15T05:50:01;16.13;;;8.32;;
21326;SDS011;10822;51.532;6.770;2024-01-15T05:52:27;13.52;;;8.27;;
21326;SDS011;10822;51.532;6.770;2024-01-15T05:54:53;15.65;;;9.07;;
21326;SDS011;10822;51.532;6.770;2024-01-15T05:57:19;16.45;;;9.27;;
21326;SDS011;10822;51.532;6.770;2024-01-15T05:59:45;15.23;;;8.55;;
21326;SDS011;10822;51.532;6.770;2024-01-15T06:02:11;19.10;;;9.70;;
21326;SDS011;10822;51.532;6.770;2024-01-15T06:04:37;17.15;;;8.07;;
21326;SDS011;10822;51.532;6.770;2024-01-15T06:07:03;22.25;;;8.75;;
21326;SDS011;10822;51.532;6.770;2024-01-15T06:09:29;15.43;;;8.35;;
21326;SDS011;10822;51.532;6.770;2024-01-15T06:11:56;17.45;;;8.60;;
21326;SDS011;10822;51.532;6.770;2024-01-15T06:14:22;15.65;;;7.45;;
21326;SDS011;10822;51.532;6.770;2024-01-15T06:16:48;17.27;;;7.75;;
21326;SDS011;10822;51.532;6.770;2024-01-15T06:19:14;13.68;;;7.00;;
21326;SDS011;10822;51.532;6.770;2024-01-15T06:21:40;14.32;;;7.18;;
21326;SDS011;10822;51.532;6.770;2024-01-15T06:24:06;15.30;;;6.35;;
21326;SDS011;10822;51.532;6.770;2024-01-15T06:26:32;14.45;;;5.95;;
21326;SDS011;10822;51.532;6.770;2024-01-15T06:28:58;11.43;;;6.30;;
21326;SDS011;10822;51.532;6.770;2024-01-15T06:31:24;15.63;;;5.78;;
21326;SDS011;10822;51.532;6.770;2024-01-15T06:33:50;12.65;;;5.55;;
21326;SDS011;10822;51.532;6.770;2024-01-15T06:36:16;9.50;;;4.68;;
21326;SDS011;10822;51.532;6.770;2024-01-15T06:38:43;11.25;;;4.50;;
21326;SDS011;10822;51.532;6.770;2024-01-15T06:41:09;12.70;;;4.70;;
21326;SDS011;10822;51.532;6.770;2024-01-15T06:43:35;9.38;;;4.00;;
21326;SDS011;10822;51.532;6.770;2024-01-15T06:46:01;7.03;;;3.78;;
21326;SDS011;10822;51.532;6.770;2024-01-15T06:48:28;5.57;;;3.05;;
21326;SDS011;10822;51.532;6.770;2024-01-15T06:50:53;6.82;;;3.50;;
21326;SDS011;10822;51.532;6.770;2024-01-15T06:53:19;8.13;;;3.53;;
21326;SDS011;10822;51.532;6.770;2024-01-15T06:55:45;11.40;;;4.13;;
21326;SDS011;10822;51.532;6.770;2024-01-15T06:58:12;7.00;;;3.13;;
21326;SDS011;10822;51.532;6.770;2024-01-15T07:00:38;7.70;;;3.40;;
21326;SDS011;10822;51.532;6.770;2024-01-15T07:03:05;5.43;;;2.85;;
21326;SDS011;10822;51.532;6.770;2024-01-15T07:05:31;5.65;;;2.88;;
21326;SDS011;10822;51.532;6.770;2024-01-15T07:07:57;5.10;;;2.83;;
21326;SDS011;10822;51.532;6.770;2024-01-15T07:10:23;4.90;;;3.03;;
21326;SDS011;10822;51.532;6.770;2024-01-15T07:12:49;5.55;;;2.65;;
21326;SDS011;10822;51.532;6.770;2024-01-15T07:15:15;6.80;;;3.40;;
21326;SDS011;10822;51.532;6.770;2024-01-15T07:17:41;5.68;;;2.50;;
21326;SDS011;10822;51.532;6.770;2024-01-15T07:20:07;5.03;;;2.85;;
21326;SDS011;10822;51.532;6.770;2024-01-15T07:22:35;4.35;;;2.70;;
21326;SDS011;10822;51.532;6.770;2024-01-15T07:25:01;4.35;;;2.65;;
21326;SDS011;10822;51.532;6.770;2024-01-15T07:27:27;6.85;;;2.65;;
21326;SDS011;10822;51.532;6.770;2024-01-15T07:29:53;4.85;;;2.70;;
21326;SDS011;10822;51.532;6.770;2024-01-15T07:32:19;7.32;;;3.25;;
21326;SDS011;10822;51.532;6.770;2024-01-15T07:34:45;6.72;;;3.00;;
21326;SDS011;10822;51.532;6.770;2024-01-15T07:37:11;6.22;;;3.33;;
21326;SDS011;10822;51.532;6.770;2024-01-15T07:39:37;7.38;;;3.63;;
21326;SDS011;10822;51.532;6.770;2024-01-15T07:42:03;5.80;;;3.30;;
21326;SDS011;10822;51.532;6.770;2024-01-15T07:44:29;5.03;;;3.08;;
21326;SDS011;10822;51.532;6.770;2024-01-15T07:46:55;8.63;;;3.25;;
21326;SDS011;10822;51.532;6.770;2024-01-15T07:49:21;5.03;;;3.17;;
21326;SDS011;10822;51.532;6.770;2024-01-15T07:51:48;6.13;;;3.50;;
21326;SDS011;10822;51.532;6.770;2024-01-15T07:54:14;7.97;;;4.10;;
21326;SDS011;10822;51.532;6.770;2024-01-15T07:59:22;9.27;;;4.80;;
21326;SDS011;10822;51.532;6.770;2024-01-15T08:01:48;8.25;;;5.13;;
21326;SDS011;10822;51.532;6.770;2024-01-15T08:04:14;8.45;;;5.40;;
21326;SDS011;10822;51.532;6.770;2024-01-15T08:06:40;10.13;;;5.95;;
21326;SDS011;10822;51.532;6.770;2024-01-15T08:09:06;8.82;;;6.30;;
21326;SDS011;10822;51.532;6.770;2024-01-15T08:11:33;10.68;;;6.07;;
21326;SDS011;10822;51.532;6.770;2024-01-15T08:13:59;11.15;;;6.53;;
21326;SDS011;10822;51.532;6.770;2024-01-15T08:16:25;11.75;;;7.22;;
21326;SDS011;10822;51.532;6.770;2024-01-15T08:18:52;12.80;;;7.80;;
21326;SDS011;10822;51.532;6.770;2024-01-15T08:21:18;10.38;;;7.57;;
21326;SDS011;10822;51.532;6.770;2024-01-15T08:23:44;12.10;;;7.75;;
21326;SDS011;10822;51.532;6.770;2024-01-15T08:26:10;10.80;;;7.13;;
21326;SDS011;10822;51.532;6.770;2024-01-15T08:28:36;12.98;;;7.93;;
21326;SDS011;10822;51.532;6.770;2024-01-15T08:31:02;11.45;;;7.35;;
21326;SDS011;10822;51.532;6.770;2024-01-15T08:33:28;12.18;;;7.38;;
21326;SDS011;10822;51.532;6.770;2024-01-15T08:35:54;9.55;;;6.93;;
21326;SDS011;10822;51.532;6.770;2024-01-15T08:38:20;11.80;;;7.40;;
21326;SDS011;10822;51.532;6.770;2024-01-15T08:40:47;8.27;;;6.20;;
21326;SDS011;10822;51.532;6.770;2024-01-15T08:43:13;10.85;;;6.25;;
21326;SDS011;10822;51.532;6.770;2024-01-15T08:45:39;12.15;;;6.22;;
21326;SDS011;10822;51.532;6.770;2024-01-15T08:48:05;8.20;;;5.50;;
21326;SDS011;10822;51.532;6.770;2024-01-15T08:50:32;8.27;;;5.63;;
21326;SDS011;10822;51.532;6.770;2024-01-15T08:52:58;8.15;;;5.53;;
21326;SDS011;10822;51.532;6.770;2024-01-15T08:55:24;8.77;;;4.72;;
21326;SDS011;10822;51.532;6.770;2024-01-15T08:57:50;6.75;;;4.55;;
21326;SDS011;10822;51.532;6.770;2024-01-15T09:00:16;8.35;;;4.82;;
21326;SDS011;10822;51.532;6.770;2024-01-15T09:02:43;7.55;;;4.97;;
21326;SDS011;10822;51.532;6.770;2024-01-15T09:05:09;7.50;;;4.90;;
21326;SDS011;10822;51.532;6.770;2024-01-15T09:07:35;7.35;;;3.97;;
21326;SDS011;10822;51.532;6.770;2024-01-15T09:10:01;7.32;;;4.20;;
21326;SDS011;10822;51.532;6.770;2024-01-15T09:12:27;5.60;;;3.75;;
21326;SDS011;10822;51.532;6.770;2024-01-15T09:14:54;6.20;;;3.70;;
21326;SDS011;10822;51.532;6.770;2024-01-15T09:17:20;7.15;;;4.32;;
21326;SDS011;10822;51.532;6.770;2024-01-15T09:19:49;6.85;;;4.85;;
21326;SDS011;10822;51.532;6.770;2024-01-15T09:22:15;7.57;;;4.80;;
21326;SDS011;10822;51.532;6.770;2024-01-15T09:24:45;6.07;;;5.05;;
21326;SDS011;10822;51.532;6.770;2024-01-15T09:27:11;7.57;;;4.88;;
21326;SDS011;10822;51.532;6.770;2024-01-15T09:29:37;8.50;;;5.45;;
21326;SDS011;10822;51.532;6.770;2024-01-15T09:32:05;7.10;;;5.05;;
21326;SDS011;10822;51.532;6.770;2024-01-15T09:34:32;7.82;;;5.22;;
21326;SDS011;10822;51.532;6.770;2024-01-15T09:36:58;9.98;;;5.93;;
21326;SDS011;10822;51.532;6.770;2024-01-15T09:39:28;9.25;;;5.18;;
21326;SDS011;10822;51.532;6.770;2024-01-15T09:41:54;8.07;;;6.05;;
21326;SDS011;10822;51.532;6.770;2024-01-15T09:44:20;8.02;;;5.65;;
21326;SDS011;10822;51.532;6.770;2024-01-15T09:46:46;10.85;;;5.70;;
21326;SDS011;10822;51.532;6.770;2024-01-15T09:49:15;8.75;;;6.30;;
21326;SDS011;10822;51.532;6.770;2024-01-15T09:51:41;11.02;;;6.65;;
21326;SDS011;10822;51.532;6.770;2024-01-15T09:54:08;10.95;;;6.13;;
21326;SDS011;10822;51.532;6.770;2024-01-15T09:56:34;9.88;;;6.53;;
21326;SDS011;10822;51.532;6.770;2024-01-15T09:59:00;11.45;;;7.18;;
21326;SDS011;10822;51.532;6.770;2024-01-15T10:01:26;9.13;;;5.78;;
21326;SDS011;10822;51.532;6.770;2024-01-15T10:03:54;10.23;;;6.07;;
21326;SDS011;10822;51.532;6.770;2024-01-15T10:06:21;10.98;;;7.05;;
21326;SDS011;10822;51.532;6.770;2024-01-15T10:08:48;16.92;;;7.75;;
21326;SDS011;10822;51.532;6.770;2024-01-15T10:11:14;14.15;;;7.47;;
21326;SDS011;10822;51.532;6.770;2024-01-15T10:13:41;10.10;;;5.95;;
21326;SDS011;10822;51.532;6.770;2024-01-15T10:16:07;8.02;;;5.38;;
21326;SDS011;10822;51.532;6.770;2024-01-15T10:18:33;8.10;;;5.32;;
21326;SDS011;10822;51.532;6.770;2024-01-15T10:21:00;8.90;;;5.28;;
21326;SDS011;10822;51.532;6.770;2024-01-15T10:23:27;7.25;;;4.68;;
21326;SDS011;10822;51.532;6.770;2024-01-15T10:25:56;6.93;;;5.13;;
21326;SDS011;10822;51.532;6.770;2024-01-15T10:28:22;7.05;;;4.40;;
21326;SDS011;10822;51.532;6.770;2024-01-15T10:30:51;9.50;;;4.38;;
21326;SDS011;10822;51.532;6.770;2024-01-15T10:33:19;6.07;;;3.90;;
21326;SDS011;10822;51.532;6.770;2024-01-15T10:35:50;4.72;;;3.67;;
21326;SDS011;10822;51.532;6.770;2024-01-15T10:38:16;4.38;;;3.13;;
21326;SDS011;10822;51.532;6.770;2024-01-15T10:40:45;6.05;;;3.72;;
21326;SDS011;10822;51.532;6.770;2024-01-15T10:43:11;8.05;;;3.72;;
21326;SDS011;10822;51.532;6.770;2024-01-15T10:45:36;7.88;;;2.90;;
21326;SDS011;10822;51.532;6.770;2024-01-15T10:48:03;6.22;;;2.97;;
21326;SDS011;10822;51.532;6.770;2024-01-15T10:50:29;6.03;;;2.90;;
21326;SDS011;10822;51.532;6.770;2024-01-15T10:52:55;4.78;;;2.63;;
21326;SDS011;10822;51.532;6.770;2024-01-15T10:55:23;5.80;;;2.58;;
21326;SDS011;10822;51.532;6.770;2024-01-15T10:57:48;4.80;;;2.42;;
21326;SDS011;10822;51.532;6.770;2024-01-15T11:00:15;4.13;;;2.40;;
21326;SDS011;10822;51.532;6.770;2024-01-15T11:02:41;4.45;;;2.63;;
21326;SDS011;10822;51.532;6.770;2024-01-15T11:05:07;8.57;;;3.22;;
21326;SDS011;10822;51.532;6.770;2024-01-15T11:07:33;5.97;;;2.30;;
21326;SDS011;10822;51.532;6.770;2024-01-15T11:10:02;5.65;;;3.00;;
21326;SDS011;10822;51.532;6.770;2024-01-15T11:12:28;5.60;;;2.90;;
21326;SDS011;10822;51.532;6.770;2024-01-15T11:15:01;6.35;;;3.00;;
21326;SDS011;10822;51.532;6.770;2024-01-15T11:17:31;5.53;;;3.67;;
21326;SDS011;10822;51.532;6.770;2024-01-15T11:20:15;8.57;;;4.50;;
21326;SDS011;10822;51.532;6.770;2024-01-15T11:22:47;7.55;;;4.60;;
21326;SDS011;10822;51.532;6.770;2024-01-15T11:25:14;7.68;;;4.28;;
21326;SDS011;10822;51.532;6.770;2024-01-15T11:27:40;8.15;;;5.00;;
21326;SDS011;10822;51.532;6.770;2024-01-15T11:30:10;5.97;;;4.63;;
21326;SDS011;10822;51.532;6.770;2024-01-15T11:32:36;7.82;;;4.90;;
21326;SDS011;10822;51.532;6.770;2024-01-15T11:35:04;8.75;;;5.20;;
21326;SDS011;10822;51.532;6.770;2024-01-15T11:40:36;8.63;;;5.40;;
21326;SDS011;10822;51.532;6.770;2024-01-15T11:43:03;8.23;;;5.18;;
21326;SDS011;10822;51.532;6.770;2024-01-15T11:45:30;12.63;;;5.95;;
21326;SDS011;10822;51.532;6.770;2024-01-15T11:50:32;9.32;;;5.88;;
21326;SDS011;10822;51.532;6.770;2024-01-15T11:53:03;10.82;;;5.55;;
21326;SDS011;10822;51.532;6.770;2024-01-15T11:55:35;9.20;;;4.93;;
21326;SDS011;10822;51.532;6.770;2024-01-15T11:58:01;5.97;;;4.50;;
21326;SDS011;10822;51.532;6.770;2024-01-15T12:00:28;8.93;;;5.13;;
21326;SDS011;10822;51.532;6.770;2024-01-15T12:02:54;9.40;;;4.15;;
21326;SDS011;10822;51.532;6.770;2024-01-15T12:05:21;8.35;;;4.38;;
21326;SDS011;10822;51.532;6.770;2024-01-15T12:07:48;8.73;;;4.70;;
21326;SDS011;10822;51.532;6.770;2024-01-15T12:10:14;8.77;;;4.38;;
21326;SDS011;10822;51.532;6.770;2024-01-15T12:15:26;9.55;;;4.30;;
21326;SDS011;10822;51.532;6.770;2024-01-15T12:17:57;6.90;;;3.85;;
21326;SDS011;10822;51.532;6.770;2024-01-15T12:20:23;8.57;;;3.78;;
21326;SDS011;10822;51.532;6.770;2024-01-15T12:22:50;7.75;;;3.10;;
21326;SDS011;10822;51.532;6.770;2024-01-15T12:25:16;5.35;;;3.00;;
21326;SDS011;10822;51.532;6.770;2024-01-15T12:27:42;7.03;;;2.80;;
21326;SDS011;10822;51.532;6.770;2024-01-15T12:30:10;6.32;;;2.28;;
21326;SDS011;10822;51.532;6.770;2024-01-15T12:32:36;7.07;;;3.85;;
21326;SDS011;10822;51.532;6.770;2024-01-15T12:35:02;7.93;;;3.33;;
21326;SDS011;10822;51.532;6.770;2024-01-15T12:37:29;10.00;;;3.35;;
21326;SDS011;10822;51.532;6.770;2024-01-15T12:39:55;8.90;;;2.20;;
21326;SDS011;10822;51.532;6.770;2024-01-15T12:42:22;6.35;;;1.90;;
21326;SDS011;10822;51.532;6.770;2024-01-15T12:44:48;8.57;;;3.05;;
21326;SDS011;10822;51.532;6.770;2024-01-15T12:47:14;5.18;;;2.50;;
21326;SDS011;10822;51.532;6.770;2024-01-15T12:49:46;7.20;;;3.40;;
21326;SDS011;10822;51.532;6.770;2024-01-15T12:52:14;27.70;;;10.02;;
21326;SDS011;10822;51.532;6.770;2024-01-15T12:54:41;25.52;;;6.95;;
21326;SDS011;10822;51.532;6.770;2024-01-15T12:57:06;9.65;;;3.75;;
21326;SDS011;10822;51.532;6.770;2024-01-15T12:59:33;13.57;;;4.95;;
21326;SDS011;10822;51.532;6.770;2024-01-15T13:01:59;9.85;;;4.20;;
21326;SDS011;10822;51.532;6.770;2024-01-15T13:04:25;10.50;;;4.00;;
21326;SDS011;10822;51.532;6.770;2024-01-15T13:06:51;15.82;;;6.65;;
21326;SDS011;10822;51.532;6.770;2024-01-15T13:09:17;9.07;;;3.05;;
21326;SDS011;10822;51.532;6.770;2024-01-15T13:11:44;7.10;;;2.90;;
21326;SDS011;10822;51.532;6.770;2024-01-15T13:14:10;8.20;;;3.45;;
21326;SDS011;10822;51.532;6.770;2024-01-15T13:16:36;9.38;;;4.50;;
21326;SDS011;10822;51.532;6.770;2024-01-15T13:19:02;11.48;;;4.05;;
21326;SDS011;10822;51.532;6.770;2024-01-15T13:21:29;6.70;;;2.70;;
21326;SDS011;10822;51.532;6.770;2024-01-15T13:23:55;12.57;;;3.85;;
21326;SDS011;10822;51.532;6.770;2024-01-15T13:26:21;11.70;;;3.80;;
21326;SDS011;10822;51.532;6.770;2024-01-15T13:28:47;5.07;;;3.10;;
21326;SDS011;10822;51.532;6.770;2024-01-15T13:31:13;8.50;;;3.28;;
21326;SDS011;10822;51.532;6.770;2024-01-15T13:33:39;8.30;;;3.08;;
21326;SDS011;10822;51.532;6.770;2024-01-15T13:36:05;20.13;;;5.40;;
21326;SDS011;10822;51.532;6.770;2024-01-15T13:38:35;10.68;;;3.47;;
21326;SDS011;10822;51.532;6.770;2024-01-15T13:41:02;7.28;;;3.20;;
21326;SDS011;10822;51.532;6.770;2024-01-15T13:43:28;16.30;;;5.07;;
21326;SDS011;10822;51.532;6.770;2024-01-15T13:45:54;9.55;;;4.15;;
21326;SDS011;10822;51.532;6.770;2024-01-15T13:48:20;9.18;;;3.65;;
21326;SDS011;10822;51.532;6.770;2024-01-15T13:50:46;8.32;;;3.38;;
21326;SDS011;10822;51.532;6.770;2024-01-15T13:53:12;3.28;;;2.42;;
21326;SDS011;10822;51.532;6.770;2024-01-15T13:55:38;7.78;;;2.70;;
21326;SDS011;10822;51.532;6.770;2024-01-15T13:58:04;4.07;;;2.22;;
21326;SDS011;10822;51.532;6.770;2024-01-15T14:00:31;13.40;;;5.00;;
21326;SDS011;10822;51.532;6.770;2024-01-15T14:02:57;21.65;;;7.40;;
21326;SDS011;10822;51.532;6.770;2024-01-15T14:05:23;6.25;;;2.65;;
21326;SDS011;10822;51.532;6.770;2024-01-15T14:07:49;12.48;;;5.65;;
21326;SDS011;10822;51.532;6.770;2024-01-15T14:10:15;17.40;;;7.68;;
21326;SDS011;10822;51.532;6.770;2024-01-15T14:12:41;17.13;;;7.07;;
21326;SDS011;10822;51.532;6.770;2024-01-15T14:15:07;11.45;;;4.88;;
21326;SDS011;10822;51.532;6.770;2024-01-15T14:17:34;5.75;;;2.20;;
21326;SDS011;10822;51.532;6.770;2024-01-15T14:20:00;3.38;;;2.13;;
21326;SDS011;10822;51.532;6.770;2024-01-15T14:22:26;17.67;;;6.53;;
21326;SDS011;10822;51.532;6.770;2024-01-15T14:24:52;5.72;;;2.50;;
21326;SDS011;10822;51.532;6.770;2024-01-15T14:27:19;14.13;;;4.45;;
21326;SDS011;10822;51.532;6.770;2024-01-15T14:29:44;8.15;;;3.75;;
21326;SDS011;10822;51.532;6.770;2024-01-15T14:32:11;9.65;;;2.40;;
21326;SDS011;10822;51.532;6.770;2024-01-15T14:34:37;4.60;;;2.00;;
21326;SDS011;10822;51.532;6.770;2024-01-15T14:37:03;4.88;;;2.17;;
21326;SDS011;10822;51.532;6.770;2024-01-15T14:39:29;5.13;;;2.13;;
21326;SDS011;10822;51.532;6.770;2024-01-15T14:41:59;6.32;;;3.50;;
21326;SDS011;10822;51.532;6.770;2024-01-15T14:44:25;3.45;;;1.70;;